createdAt,value
2018-08-25T00:02:19.608Z,17.10
2018-08-25T00:07:17.873Z,17.00
2018-08-25T00:09:47.171Z,17.20
2018-08-25T00:12:16.381Z,16.70
2018-08-25T00:14:45.626Z,16.70
2018-08-25T00:17:14.907Z,17.20
2018-08-25T00:19:44.100Z,16.80
2018-08-25T00:22:13.406Z,16.70
2018-08-25T00:24:42.645Z,17.20
2018-08-25T00:27:11.958Z,17.00
2018-08-25T00:29:41.201Z,17.00
2018-08-25T00:32:10.479Z,16.80
2018-08-25T00:34:39.752Z,17.10
2018-08-25T00:37:08.998Z,16.60
2018-08-25T00:39:38.356Z,17.00
2018-08-25T00:42:07.566Z,16.80
2018-08-25T00:47:05.860Z,16.60
2018-08-25T00:49:35.130Z,17.20
2018-08-25T00:52:04.339Z,16.80
2018-08-25T00:54:33.643Z,16.80
2018-08-25T00:59:31.942Z,17.00
2018-08-25T01:02:01.094Z,17.10
2018-08-25T01:04:30.395Z,16.40
2018-08-25T01:06:59.621Z,16.50
2018-08-25T01:09:28.819Z,17.10
2018-08-25T01:11:58.066Z,17.00
2018-08-25T01:16:56.316Z,16.70
2018-08-25T01:19:25.571Z,17.20
2018-08-25T01:24:23.782Z,16.70
2018-08-25T01:26:53.179Z,17.00
2018-08-25T01:29:22.358Z,16.80
2018-08-25T01:31:51.639Z,17.10
2018-08-25T01:39:22.184Z,17.00
2018-08-25T01:41:51.444Z,16.50
2018-08-25T01:44:20.636Z,16.20
2018-08-25T01:46:49.860Z,16.30
2018-08-25T01:49:19.113Z,16.90
2018-08-25T01:51:48.349Z,17.10
2018-08-25T01:56:46.797Z,16.60
2018-08-25T01:59:16.055Z,16.10
2018-08-25T02:01:45.305Z,16.40
2018-08-25T02:06:43.559Z,16.50
2018-08-25T02:09:14.068Z,17.10
2018-08-25T02:11:43.299Z,16.10
2018-08-25T02:14:12.614Z,16.40
2018-08-25T02:19:11.168Z,16.40
2018-08-25T02:21:40.418Z,16.20
2018-08-25T02:24:09.615Z,16.70
2018-08-25T02:26:38.893Z,16.30
2018-08-25T02:29:08.146Z,16.10
2018-08-25T02:31:37.419Z,16.60
2018-08-25T02:34:06.701Z,15.90
2018-08-25T02:36:35.929Z,16.60
2018-08-25T02:39:08.904Z,16.40
2018-08-25T02:41:38.173Z,16.10
2018-08-25T02:44:07.378Z,16.60
2018-08-25T02:46:36.694Z,16.20
2018-08-25T02:49:06.011Z,16.00
2018-08-25T02:51:35.268Z,16.20
2018-08-25T02:54:04.531Z,16.40
2018-08-25T02:56:33.837Z,15.80
2018-08-25T02:59:03.276Z,15.70
2018-08-25T03:01:32.564Z,16.30
2018-08-25T03:04:01.805Z,15.90
2018-08-25T03:06:31.073Z,16.30
2018-08-25T03:09:00.302Z,16.10
2018-08-25T03:11:29.533Z,16.00
2018-08-25T03:13:58.766Z,16.20
2018-08-25T03:16:28.033Z,16.10
2018-08-25T03:18:57.314Z,15.60
2018-08-25T03:21:26.541Z,16.00
2018-08-25T03:26:24.767Z,15.70
2018-08-25T03:28:54.026Z,16.10
2018-08-25T03:33:52.246Z,15.60
2018-08-25T03:41:19.381Z,16.10
2018-08-25T03:43:48.643Z,15.80
2018-08-25T03:46:17.898Z,16.00
2018-08-25T03:48:47.155Z,16.20
2018-08-25T03:53:45.519Z,15.70
2018-08-25T03:56:14.774Z,16.20
2018-08-25T03:58:44.050Z,16.10
2018-08-25T04:01:13.348Z,16.30
2018-08-25T04:03:42.585Z,15.70
2018-08-25T04:06:11.799Z,15.50
2018-08-25T04:08:41.131Z,16.00
2018-08-25T04:13:39.348Z,15.60
2018-08-25T04:18:37.675Z,15.60
2018-08-25T04:21:07.275Z,16.10
2018-08-25T04:23:37.596Z,16.00
2018-08-25T04:28:36.130Z,16.00
2018-08-25T04:31:05.345Z,15.70
2018-08-25T04:33:34.640Z,16.10
2018-08-25T04:38:32.832Z,16.10
2018-08-25T04:41:02.026Z,15.90
2018-08-25T04:43:31.276Z,16.20
2018-08-25T04:46:00.509Z,15.80
2018-08-25T04:48:29.741Z,16.30
2018-08-25T04:50:59.005Z,16.00
2018-08-25T04:58:26.173Z,16.30
2018-08-25T05:00:55.419Z,15.90
2018-08-25T05:03:24.616Z,16.20
2018-08-25T05:05:53.839Z,16.20
2018-08-25T05:08:23.158Z,16.20
2018-08-25T05:10:52.422Z,16.20
2018-08-25T05:13:21.651Z,15.80
2018-08-25T05:15:50.928Z,16.30
2018-08-25T05:18:20.295Z,16.40
2018-08-25T05:20:49.512Z,16.50
2018-08-25T05:23:18.740Z,16.10
2018-08-25T05:25:48.015Z,16.00
2018-08-25T05:33:15.246Z,16.10
2018-08-25T05:35:44.673Z,16.30
2018-08-25T05:38:13.966Z,16.50
2018-08-25T05:43:12.479Z,16.10
2018-08-25T05:45:41.680Z,16.30
2018-08-25T05:48:10.922Z,16.50
2018-08-25T05:50:40.286Z,16.40
2018-08-25T05:55:38.439Z,16.70
2018-08-25T05:58:07.645Z,16.30
2018-08-25T06:00:36.876Z,16.90
2018-08-25T06:03:06.204Z,16.80
2018-08-25T06:13:02.798Z,17.10
2018-08-25T06:15:32.124Z,17.10
2018-08-25T06:18:01.391Z,17.80
2018-08-25T06:22:59.588Z,18.40
2018-08-25T06:25:28.843Z,18.70
2018-08-25T06:30:27.033Z,19.40
2018-08-25T06:35:25.328Z,19.40
2018-08-25T06:37:54.622Z,19.60
2018-08-25T06:40:23.914Z,19.60
2018-08-25T06:42:53.259Z,19.50
2018-08-25T06:47:51.902Z,19.50
2018-08-25T06:50:21.174Z,19.50
2018-08-25T06:52:50.406Z,19.90
2018-08-25T06:57:55.064Z,19.70
2018-08-25T07:00:24.348Z,19.70
2018-08-25T07:02:53.640Z,19.90
2018-08-25T07:07:52.094Z,20.10
2018-08-25T07:10:21.469Z,20.10
2018-08-25T07:12:50.995Z,20.30
2018-08-25T07:22:47.565Z,19.90
2018-08-25T07:25:16.919Z,20.30
2018-08-25T07:33:00.976Z,20.20
2018-08-25T07:35:30.267Z,20.20
2018-08-25T07:37:59.559Z,20.10
2018-08-25T07:40:28.816Z,20.10
2018-08-25T07:42:58.081Z,20.30
2018-08-25T07:45:27.360Z,20.20
2018-08-25T07:47:57.169Z,20.10
2018-08-25T07:50:26.382Z,20.40
2018-08-25T07:55:24.670Z,20.30
2018-08-25T07:57:54.503Z,20.20
2018-08-25T08:00:23.785Z,20.50
2018-08-25T08:02:53.066Z,20.50
2018-08-25T08:07:51.318Z,20.30
2018-08-25T08:10:20.509Z,20.90
2018-08-25T08:12:49.755Z,20.70
2018-08-25T08:15:18.982Z,20.60
2018-08-25T08:17:48.449Z,20.30
2018-08-25T08:22:46.662Z,20.70
2018-08-25T08:25:16.057Z,20.70
2018-08-25T08:27:46.163Z,20.50
2018-08-25T08:32:44.743Z,20.90
2018-08-25T08:35:14.202Z,21.20
2018-08-25T08:37:43.496Z,21.00
2018-08-25T08:40:12.774Z,21.00
2018-08-25T08:45:11.099Z,21.40
2018-08-25T08:47:40.384Z,21.10
2018-08-25T08:50:10.742Z,21.30
2018-08-25T08:52:40.205Z,21.30
2018-08-25T08:55:09.622Z,21.50
2018-08-25T08:57:39.105Z,21.60
2018-08-25T09:00:08.442Z,21.80
2018-08-25T09:02:37.838Z,22.10
2018-08-25T09:05:07.595Z,22.20
2018-08-25T09:10:06.027Z,21.90
2018-08-25T09:12:35.430Z,22.00
2018-08-25T09:17:34.051Z,21.90
2018-08-25T09:20:03.297Z,21.90
2018-08-25T09:22:32.529Z,21.90
2018-08-25T09:25:01.835Z,21.90
2018-08-25T09:27:31.177Z,22.00
2018-08-25T09:30:00.317Z,21.80
2018-08-25T09:32:29.684Z,22.00
2018-08-25T09:37:28.095Z,22.00
2018-08-25T09:42:26.294Z,22.30
2018-08-25T09:44:55.520Z,22.10
2018-08-25T09:52:24.932Z,22.40
2018-08-25T09:54:54.200Z,22.50
2018-08-25T09:57:23.514Z,22.40
2018-08-25T09:59:52.865Z,22.20
2018-08-25T10:04:51.265Z,22.10
2018-08-25T10:07:20.551Z,23.00
2018-08-25T10:17:16.859Z,22.40
2018-08-25T10:19:46.105Z,22.30
2018-08-25T10:22:15.383Z,22.30
2018-08-25T10:24:44.622Z,22.20
2018-08-25T10:32:11.807Z,22.00
2018-08-25T10:34:41.066Z,21.70
2018-08-25T10:37:10.330Z,21.60
2018-08-25T10:42:08.565Z,21.20
2018-08-25T10:44:37.758Z,20.90
2018-08-25T10:47:06.977Z,21.20
2018-08-25T10:49:36.162Z,21.20
2018-08-25T10:52:05.407Z,21.20
2018-08-25T10:54:34.605Z,20.70
2018-08-25T10:57:03.927Z,20.60
2018-08-25T10:59:33.188Z,20.30
2018-08-25T11:02:02.480Z,20.10
2018-08-25T11:04:34.794Z,20.00
2018-08-25T11:09:33.186Z,19.70
2018-08-25T11:12:02.417Z,19.50
2018-08-25T11:14:31.933Z,19.20
2018-08-25T11:17:01.297Z,18.50
2018-08-25T11:19:30.563Z,19.50
2018-08-25T11:21:59.826Z,18.50
2018-08-25T11:24:29.061Z,18.00
2018-08-25T11:29:27.396Z,17.30
2018-08-25T11:31:56.630Z,18.00
2018-08-25T11:34:25.948Z,17.50
2018-08-25T11:36:55.209Z,17.50
2018-08-25T11:39:24.421Z,17.60
2018-08-25T11:41:53.592Z,17.30
2018-08-25T11:46:51.844Z,16.70
2018-08-25T11:49:21.154Z,17.00
2018-08-25T11:51:50.418Z,17.40
2018-08-25T12:01:46.910Z,17.00
2018-08-25T12:04:16.296Z,16.10
2018-08-25T12:06:45.522Z,16.00
2018-08-25T12:09:14.757Z,16.00
2018-08-25T12:11:43.944Z,16.40
2018-08-25T12:14:13.196Z,16.90
2018-08-25T12:16:42.494Z,17.20
2018-08-25T12:19:11.758Z,17.00
2018-08-25T12:21:40.988Z,17.30
2018-08-25T12:24:10.297Z,18.50
2018-08-25T12:26:39.770Z,18.20
2018-08-25T12:29:09.101Z,18.00
2018-08-25T12:31:38.448Z,18.40
2018-08-25T12:34:07.695Z,18.30
2018-08-25T12:36:36.979Z,18.50
2018-08-25T12:44:07.070Z,18.40
2018-08-25T12:46:36.502Z,18.80
2018-08-25T12:49:05.855Z,18.90
2018-08-25T12:51:35.372Z,18.80
2018-08-25T12:56:33.625Z,19.10
2018-08-25T13:01:31.937Z,19.20
2018-08-25T13:04:01.162Z,19.30
2018-08-25T13:06:30.417Z,19.40
2018-08-25T13:08:59.680Z,19.10
2018-08-25T13:11:28.910Z,19.10
2018-08-25T13:16:27.277Z,19.30
2018-08-25T13:21:25.675Z,19.10
2018-08-25T13:23:54.905Z,19.10
2018-08-25T13:26:24.175Z,18.90
2018-08-25T13:31:22.597Z,19.30
2018-08-25T13:33:51.753Z,19.30
2018-08-25T13:38:49.924Z,19.00
2018-08-25T13:43:48.248Z,19.30
2018-08-25T13:48:46.538Z,19.30
2018-08-25T13:51:15.849Z,18.80
2018-08-25T13:53:45.050Z,19.00
2018-08-25T13:56:14.323Z,19.10
2018-08-25T14:01:12.481Z,19.30
2018-08-25T14:03:41.758Z,19.30
2018-08-25T14:06:11.523Z,19.30
2018-08-25T14:08:40.837Z,19.50
2018-08-25T14:13:39.104Z,19.20
2018-08-25T14:16:15.401Z,19.30
2018-08-25T14:18:44.752Z,19.00
2018-08-25T14:21:14.062Z,19.60
2018-08-25T14:23:43.293Z,19.40
2018-08-25T14:28:41.657Z,18.90
2018-08-25T14:36:36.353Z,19.40
2018-08-25T14:39:09.540Z,19.10
2018-08-25T14:41:38.809Z,19.40
2018-08-25T14:44:08.134Z,19.20
2018-08-25T14:49:07.769Z,19.10
2018-08-25T14:51:37.029Z,18.60
2018-08-25T14:54:06.275Z,19.10
2018-08-25T14:56:35.522Z,19.20
2018-08-25T14:59:05.167Z,18.80
2018-08-25T15:04:03.485Z,19.30
2018-08-25T15:06:32.744Z,19.10
2018-08-25T15:09:02.129Z,18.90
2018-08-25T15:14:00.342Z,18.60
2018-08-25T15:18:58.573Z,18.90
2018-08-25T15:21:27.786Z,19.20
2018-08-25T15:23:57.193Z,19.10
2018-08-25T15:26:26.438Z,19.60
2018-08-25T15:28:55.832Z,18.90
2018-08-25T15:36:23.115Z,19.40
2018-08-25T15:38:52.423Z,18.90
2018-08-25T15:41:21.706Z,19.50
2018-08-25T15:43:50.941Z,18.70
2018-08-25T15:48:49.241Z,19.70
2018-08-25T15:51:18.557Z,19.10
2018-08-25T15:53:47.852Z,19.10
2018-08-25T15:56:17.035Z,19.10
2018-08-25T15:58:46.285Z,18.80
2018-08-25T16:01:15.550Z,18.80
2018-08-25T16:03:44.868Z,18.90
2018-08-25T16:06:14.258Z,18.70
2018-08-25T16:08:43.456Z,18.70
2018-08-25T16:13:42.576Z,18.70
2018-08-25T16:16:11.851Z,18.40
2018-08-25T16:23:39.189Z,18.20
2018-08-25T16:28:37.498Z,18.40
2018-08-25T16:31:06.793Z,18.10
2018-08-25T16:36:05.316Z,18.50
2018-08-25T16:38:34.535Z,18.10
2018-08-25T16:41:03.845Z,18.10
2018-08-25T16:46:02.204Z,18.00
2018-08-25T16:48:31.447Z,17.90
2018-08-25T16:53:29.704Z,17.60
2018-08-25T16:55:59.125Z,17.80
2018-08-25T17:00:57.471Z,17.60
2018-08-25T17:03:26.743Z,17.50
2018-08-25T17:05:55.936Z,18.00
2018-08-25T17:08:25.205Z,17.40
2018-08-25T17:10:54.413Z,17.20
2018-08-25T17:13:23.650Z,17.50
2018-08-25T17:18:21.981Z,17.20
2018-08-25T17:20:51.334Z,16.80
2018-08-25T17:23:20.806Z,16.60
2018-08-25T17:25:50.337Z,16.90
2018-08-25T17:28:19.696Z,16.70
2018-08-25T17:30:48.965Z,17.20
2018-08-25T17:33:18.279Z,17.60
2018-08-25T17:35:47.547Z,16.70
2018-08-25T17:38:16.783Z,16.30
2018-08-25T17:40:46.126Z,17.00
2018-08-25T17:43:15.357Z,16.90
2018-08-25T17:45:44.724Z,16.30
2018-08-25T17:50:42.920Z,16.00
2018-08-25T17:53:12.253Z,16.10
2018-08-25T17:55:41.572Z,16.00
2018-08-25T18:00:39.852Z,16.70
2018-08-25T18:03:09.171Z,15.90
2018-08-25T18:05:38.462Z,16.20
2018-08-25T18:13:05.745Z,15.60
2018-08-25T18:15:34.999Z,15.80
2018-08-25T18:18:04.349Z,16.20
2018-08-25T18:23:02.559Z,15.40
2018-08-25T18:25:31.832Z,15.60
2018-08-25T18:32:59.067Z,16.10
2018-08-25T18:35:28.632Z,15.80
2018-08-25T18:40:27.309Z,15.30
2018-08-25T18:42:56.564Z,15.30
2018-08-25T18:45:25.942Z,15.40
2018-08-25T18:50:30.806Z,15.00
2018-08-25T18:53:00.057Z,15.40
2018-08-25T18:55:29.284Z,15.50
2018-08-25T19:00:27.668Z,15.50
2018-08-25T19:05:25.984Z,14.70
2018-08-25T19:10:24.240Z,15.40
2018-08-25T19:12:53.498Z,15.10
2018-08-25T19:15:24.371Z,14.50
2018-08-25T19:18:00.581Z,15.00
2018-08-25T19:20:29.760Z,14.30
2018-08-25T19:22:58.994Z,14.80
2018-08-25T19:25:28.239Z,15.10
2018-08-25T19:32:55.553Z,14.80
2018-08-25T19:37:53.733Z,14.60
2018-08-25T19:42:52.027Z,14.10
2018-08-25T19:45:21.302Z,14.40
2018-08-25T19:50:19.493Z,14.70
2018-08-25T19:52:48.797Z,14.70
2018-08-25T19:55:18.023Z,14.00
2018-08-25T19:57:47.290Z,13.70
2018-08-25T20:02:45.586Z,14.10
2018-08-25T20:05:14.876Z,13.70
2018-08-25T20:07:44.166Z,14.30
2018-08-25T20:12:42.346Z,14.00
2018-08-25T20:15:11.764Z,14.20
2018-08-25T20:17:41.239Z,13.70
2018-08-25T20:20:10.777Z,13.60
2018-08-25T20:22:40.175Z,14.00
2018-08-25T20:25:09.508Z,14.10
2018-08-25T20:30:08.408Z,13.70
2018-08-25T20:32:37.730Z,13.80
2018-08-25T20:35:07.154Z,14.30
2018-08-25T20:37:36.376Z,13.50
2018-08-25T20:40:05.827Z,14.10
2018-08-25T20:42:35.133Z,14.10
2018-08-25T20:50:02.586Z,13.90
2018-08-25T20:55:00.880Z,14.10
2018-08-25T20:57:30.164Z,14.40
2018-08-25T20:59:59.373Z,14.10
2018-08-25T21:02:28.607Z,14.10
2018-08-25T21:09:55.845Z,14.80
2018-08-25T21:12:25.088Z,13.90
2018-08-25T21:14:55.043Z,14.20
2018-08-25T21:17:24.324Z,14.10
2018-08-25T21:22:22.555Z,14.30
2018-08-25T21:24:51.855Z,14.50
2018-08-25T21:27:21.070Z,14.20
2018-08-25T21:29:50.327Z,14.50
2018-08-25T21:32:19.655Z,13.90
2018-08-25T21:34:48.941Z,14.40
2018-08-25T21:37:18.219Z,14.20
2018-08-25T21:42:16.614Z,14.40
2018-08-25T21:44:47.050Z,14.60
2018-08-25T21:54:43.205Z,14.30
2018-08-25T21:57:12.454Z,14.20
2018-08-25T22:02:14.804Z,15.30
2018-08-25T22:04:44.122Z,15.10
2018-08-25T22:12:11.542Z,15.00
2018-08-25T22:17:09.785Z,14.30
2018-08-25T22:19:38.981Z,14.60
2018-08-25T22:22:08.190Z,14.60
2018-08-25T22:24:37.443Z,14.90
2018-08-25T22:29:35.707Z,14.90
2018-08-25T22:32:04.971Z,14.40
2018-08-25T22:34:34.242Z,14.70
2018-08-25T22:37:03.476Z,13.80
2018-08-25T22:39:32.737Z,14.30
2018-08-25T22:42:01.976Z,13.90
2018-08-25T22:44:31.272Z,14.50
2018-08-25T22:47:00.495Z,14.40
2018-08-25T22:49:29.712Z,14.50
2018-08-25T22:51:59.037Z,14.50
2018-08-25T22:54:28.252Z,14.30
2018-08-25T22:56:57.536Z,13.70
2018-08-25T22:59:26.754Z,13.20
2018-08-25T23:01:56.260Z,14.00
2018-08-25T23:04:25.774Z,14.20
2018-08-25T23:09:24.144Z,13.20
2018-08-25T23:11:53.372Z,13.70
2018-08-25T23:14:22.596Z,14.10
2018-08-25T23:16:51.880Z,13.50
2018-08-25T23:21:50.238Z,13.90
2018-08-25T23:26:48.519Z,13.20
2018-08-25T23:31:46.778Z,13.10
2018-08-25T23:34:16.065Z,13.40
2018-08-25T23:36:45.289Z,13.60
2018-08-25T23:39:14.497Z,13.20
2018-08-25T23:41:43.729Z,13.70
2018-08-25T23:44:13.101Z,13.10
2018-08-25T23:46:42.336Z,13.40
2018-08-25T23:49:11.548Z,13.60
2018-08-25T23:51:40.783Z,13.10
2018-08-25T23:54:10.050Z,13.40
2018-08-25T23:56:39.243Z,13.10
